Sun Princess — ZCBU6 — position and weather

sailwx.info

Track history (hours):
 
Tides and Currents Weather Stations Pressure Air Temp Water Temp Dewpoint Dewpoint Depression Visibility Wind Speed Wind Dir Waves Ship Positions

Sun Princess

Operator: Princess Cruises

Last reported at 2018-Apr-19 07:58 UTC. Time now 2018-Apr-20 06:28 UTC.
Position S 18°18' E 178°33'.

Length 261.3 m; beam 32.3 m; draft 8.1 m.

Type: Passenger vessel. MMSI: 310438000.

Date/timePositionNaut miles runAvg speedWind from/ knotsBaromVisibWave heightAir tempDewpointWater temp
2018-Apr-19 07:58S 18°18' E 178°33'510.6
2018-Apr-19 07:30S 18°15' E 178°29'511.0
2018-Apr-19 07:00S 18°12' E 178°24'4 8.1
2018-Apr-19 06:30S 18°08' E 178°25'0 0.4
2018-Apr-19 06:00S 18°08' E 178°25'0 0.0
2018-Apr-19 05:30S 18°08' E 178°25'0 0.0
2018-Apr-19 05:00S 18°08' E 178°25'0 0.0
2018-Apr-19 04:30S 18°08' E 178°25'0 0.0
2018-Apr-19 04:00S 18°08' E 178°25'0 0.0
2018-Apr-19 03:30S 18°08' E 178°25'0 0.0
2018-Apr-19 03:00S 18°08' E 178°25'0 0.0
2018-Apr-19 02:30S 18°08' E 178°25'0 0.0
2018-Apr-19 02:00S 18°08' E 178°25'0 0.0
2018-Apr-19 01:30S 18°08' E 178°25'0 0.0
2018-Apr-19 01:00S 18°08' E 178°25'0 0.0
2018-Apr-19 00:30S 18°08' E 178°25'0 0.0
2018-Apr-19 00:00S 18°08' E 178°25'0 0.0
2018-Apr-18 23:30S 18°08' E 178°25'0 0.0
2018-Apr-18 23:00S 18°08' E 178°25'0 0.0
2018-Apr-18 22:30S 18°08' E 178°25'0 0.0
2018-Apr-18 22:00S 18°08' E 178°25'0 0.0
2018-Apr-18 21:30S 18°08' E 178°25'0 0.0
2018-Apr-18 21:00S 18°08' E 178°25'0 0.0
2018-Apr-18 20:30S 18°08' E 178°25'0 0.0
2018-Apr-18 20:00S 18°08' E 178°25'0 0.1
2018-Apr-18 19:30S 18°08' E 178°25'3 5.1
2018-Apr-18 19:00S 18°10' E 178°24'612.4
2018-Apr-18 18:30S 18°16' E 178°23'611.8
2018-Apr-18 18:00S 18°21' E 178°21'  
2018-Apr-15 08:12S 22°24' E 166°46'418.2
2018-Apr-15 08:00S 22°23' E 166°43'918.1
2018-Apr-15 07:31S 22°22' E 166°33'816.5
2018-Apr-15 07:00S 22°18' E 166°25'3 5.7
2018-Apr-15 06:30S 22°16' E 166°25'1 1.2
2018-Apr-15 05:59S 22°16' E 166°26'0 0.0
2018-Apr-15 05:29S 22°16' E 166°26'0 0.0
2018-Apr-15 04:59S 22°16' E 166°26'0 0.0
2018-Apr-15 04:26S 22°16' E 166°26'0 0.0
2018-Apr-15 03:59S 22°16' E 166°26'0 0.0
2018-Apr-15 03:26S 22°16' E 166°26'0 0.0
2018-Apr-15 02:59S 22°16' E 166°26'0 0.0
2018-Apr-15 02:29S 22°16' E 166°26'0 0.0
2018-Apr-15 01:59S 22°16' E 166°26'0 0.0
2018-Apr-15 01:26S 22°16' E 166°26'0 0.0
2018-Apr-15 00:59S 22°16' E 166°26'0 0.0
2018-Apr-15 00:29S 22°16' E 166°26'0 0.5
2018-Apr-15 00:00S 22°16' E 166°26'3 5.6
2018-Apr-14 23:30S 22°15' E 166°23'816.0
2018-Apr-14 23:00S 22°20' E 166°17'713.5
2018-Apr-14 22:30S 22°25' E 166°11'917.8
2018-Apr-14 22:00S 22°31' E 166°04'90417.6
2018-Apr-12 18:45S 32°27' E 153°18'415.8
2018-Apr-12 18:30S 32°29' E 153°15'816.1
2018-Apr-12 18:00S 32°35' E 153°08'815.9
2018-Apr-12 17:30S 32°40' E 153°01'815.3
2018-Apr-12 17:00S 32°45' E 152°53'714.3
2018-Apr-12 16:30S 32°49' E 152°47'714.1
2018-Apr-12 16:00S 32°54' E 152°41'816.7
2018-Apr-12 15:30S 32°59' E 152°33'917.8
2018-Apr-12 15:00S 33°05' E 152°25'917.8
2018-Apr-12 14:30S 33°10' E 152°16'917.6
2018-Apr-12 14:00S 33°17' E 152°09'917.5
2018-Apr-12 13:30S 33°23' E 152°01'917.4
2018-Apr-12 13:00S 33°28' E 151°54'917.6
2018-Apr-12 12:30S 33°34' E 151°46'917.3
2018-Apr-12 12:01S 33°40' E 151°38'917.3
2018-Apr-12 11:31S 33°46' E 151°31'815.5
2018-Apr-12 11:00S 33°50' E 151°23'510.6
2018-Apr-12 10:30S 33°50' E 151°16'4 7.3
2018-Apr-12 10:00S 33°51' E 151°12'2 0.3
2018-Apr-12 01:40S 33°51' E 151°15'210.7
2018-Apr-12 01:30S 33°50' E 151°16'611.9
2018-Apr-12 01:00S 33°50' E 151°23'611.8
2018-Apr-12 00:30S 33°49' E 151°30'713.0
2018-Apr-12 00:00S 33°48' E 151°38'713.1
2018-Apr-11 23:30S 33°46' E 151°45'713.2
2018-Apr-11 23:00S 33°44' E 151°53'917.5
2018-Apr-11 22:31S 33°42' E 152°03'918.3
2018-Apr-11 22:00S 33°39' E 152°14'918.3
2018-Apr-11 21:31S 33°37' E 152°24'918.5
2018-Apr-11 21:00S 33°34' E 152°35'918.5
2018-Apr-11 20:31S 33°32' E 152°46'917.6
2018-Apr-11 20:00S 33°29' E 152°56'917.4
2018-Apr-11 19:30S 33°27' E 153°06'1717.6
2018-Apr-11 18:31S 33°22' E 153°26'118.0
2018-Apr-11 18:29S 33°22' E 153°27'817.1
2018-Apr-11 18:00S 33°20' E 153°36'917.6
2018-Apr-11 17:31S 33°18' E 153°46'1418.0
2018-Apr-11 16:44S 33°14' E 154°02'  
Track history (hours):
 
Tides and Currents Weather Stations Pressure Air Temp Water Temp Dewpoint Dewpoint Depression Visibility Wind Speed Wind Dir Waves Ship Positions

Sun Princess

Operator: Princess Cruises

Last reported at 2018-Apr-19 07:58 UTC. Time now 2018-Apr-20 06:28 UTC.
Position S 18°18' E 178°33'.

Length 261.3 m; beam 32.3 m; draft 8.1 m.

Type: Passenger vessel. MMSI: 310438000.

Date/timePositionNaut miles runAvg speedWind from/ knotsBaromVisibWave heightAir tempDewpointWater temp
2018-Apr-19 07:58S 18°18' E 178°33'510.6
2018-Apr-19 07:30S 18°15' E 178°29'511.0
2018-Apr-19 07:00S 18°12' E 178°24'4 8.1
2018-Apr-19 06:30S 18°08' E 178°25'0 0.4
2018-Apr-19 06:00S 18°08' E 178°25'0 0.0
2018-Apr-19 05:30S 18°08' E 178°25'0 0.0
2018-Apr-19 05:00S 18°08' E 178°25'0 0.0
2018-Apr-19 04:30S 18°08' E 178°25'0 0.0
2018-Apr-19 04:00S 18°08' E 178°25'0 0.0
2018-Apr-19 03:30S 18°08' E 178°25'0 0.0
2018-Apr-19 03:00S 18°08' E 178°25'0 0.0
2018-Apr-19 02:30S 18°08' E 178°25'0 0.0
2018-Apr-19 02:00S 18°08' E 178°25'0 0.0
2018-Apr-19 01:30S 18°08' E 178°25'0 0.0
2018-Apr-19 01:00S 18°08' E 178°25'0 0.0
2018-Apr-19 00:30S 18°08' E 178°25'0 0.0
2018-Apr-19 00:00S 18°08' E 178°25'0 0.0
2018-Apr-18 23:30S 18°08' E 178°25'0 0.0
2018-Apr-18 23:00S 18°08' E 178°25'0 0.0
2018-Apr-18 22:30S 18°08' E 178°25'0 0.0
2018-Apr-18 22:00S 18°08' E 178°25'0 0.0
2018-Apr-18 21:30S 18°08' E 178°25'0 0.0
2018-Apr-18 21:00S 18°08' E 178°25'0 0.0
2018-Apr-18 20:30S 18°08' E 178°25'0 0.0
2018-Apr-18 20:00S 18°08' E 178°25'0 0.1
2018-Apr-18 19:30S 18°08' E 178°25'3 5.1
2018-Apr-18 19:00S 18°10' E 178°24'612.4
2018-Apr-18 18:30S 18°16' E 178°23'611.8
2018-Apr-18 18:00S 18°21' E 178°21'  
2018-Apr-15 08:12S 22°24' E 166°46'418.2
2018-Apr-15 08:00S 22°23' E 166°43'918.1
2018-Apr-15 07:31S 22°22' E 166°33'816.5
2018-Apr-15 07:00S 22°18' E 166°25'3 5.7
2018-Apr-15 06:30S 22°16' E 166°25'1 1.2
2018-Apr-15 05:59S 22°16' E 166°26'0 0.0
2018-Apr-15 05:29S 22°16' E 166°26'0 0.0
2018-Apr-15 04:59S 22°16' E 166°26'0 0.0
2018-Apr-15 04:26S 22°16' E 166°26'0 0.0
2018-Apr-15 03:59S 22°16' E 166°26'0 0.0
2018-Apr-15 03:26S 22°16' E 166°26'0 0.0
2018-Apr-15 02:59S 22°16' E 166°26'0 0.0
2018-Apr-15 02:29S 22°16' E 166°26'0 0.0
2018-Apr-15 01:59S 22°16' E 166°26'0 0.0
2018-Apr-15 01:26S 22°16' E 166°26'0 0.0
2018-Apr-15 00:59S 22°16' E 166°26'0 0.0
2018-Apr-15 00:29S 22°16' E 166°26'0 0.5
2018-Apr-15 00:00S 22°16' E 166°26'3 5.6
2018-Apr-14 23:30S 22°15' E 166°23'816.0
2018-Apr-14 23:00S 22°20' E 166°17'713.5
2018-Apr-14 22:30S 22°25' E 166°11'917.8
2018-Apr-14 22:00S 22°31' E 166°04'90417.6
2018-Apr-12 18:45S 32°27' E 153°18'415.8
2018-Apr-12 18:30S 32°29' E 153°15'816.1
2018-Apr-12 18:00S 32°35' E 153°08'815.9
2018-Apr-12 17:30S 32°40' E 153°01'815.3
2018-Apr-12 17:00S 32°45' E 152°53'714.3
2018-Apr-12 16:30S 32°49' E 152°47'714.1
2018-Apr-12 16:00S 32°54' E 152°41'816.7
2018-Apr-12 15:30S 32°59' E 152°33'917.8
2018-Apr-12 15:00S 33°05' E 152°25'917.8
2018-Apr-12 14:30S 33°10' E 152°16'917.6
2018-Apr-12 14:00S 33°17' E 152°09'917.5
2018-Apr-12 13:30S 33°23' E 152°01'917.4
2018-Apr-12 13:00S 33°28' E 151°54'917.6
2018-Apr-12 12:30S 33°34' E 151°46'917.3
2018-Apr-12 12:01S 33°40' E 151°38'917.3
2018-Apr-12 11:31S 33°46' E 151°31'815.5
2018-Apr-12 11:00S 33°50' E 151°23'510.6
2018-Apr-12 10:30S 33°50' E 151°16'4 7.3
2018-Apr-12 10:00S 33°51' E 151°12'2 0.3
2018-Apr-12 01:40S 33°51' E 151°15'210.7
2018-Apr-12 01:30S 33°50' E 151°16'611.9
2018-Apr-12 01:00S 33°50' E 151°23'611.8
2018-Apr-12 00:30S 33°49' E 151°30'713.0
2018-Apr-12 00:00S 33°48' E 151°38'713.1
2018-Apr-11 23:30S 33°46' E 151°45'713.2
2018-Apr-11 23:00S 33°44' E 151°53'917.5
2018-Apr-11 22:31S 33°42' E 152°03'918.3
2018-Apr-11 22:00S 33°39' E 152°14'918.3
2018-Apr-11 21:31S 33°37' E 152°24'918.5
2018-Apr-11 21:00S 33°34' E 152°35'918.5
2018-Apr-11 20:31S 33°32' E 152°46'917.6
2018-Apr-11 20:00S 33°29' E 152°56'917.4
2018-Apr-11 19:30S 33°27' E 153°06'1717.6
2018-Apr-11 18:31S 33°22' E 153°26'118.0
2018-Apr-11 18:29S 33°22' E 153°27'817.1
2018-Apr-11 18:00S 33°20' E 153°36'917.6
2018-Apr-11 17:31S 33°18' E 153°46'1418.0
2018-Apr-11 16:44S 33°14' E 154°02'  

Dump ship's entire track history